Time;durP1;ratioP1;P1;durP2;ratioP2;P2;SDS_P1;SDS_P2;PMS_P1;PMS_P2;Temp;Humidity;BMP_temperature;BMP_pressure;BME280_temperature;BME280_humidity;BME280_pressure;Samples;Min_cycle;Max_cycle;Signal;HPM_P1;HPM_P2
2021/04/07 00:00:30;;;;;;;35.10;22.50;;;0.40;54.40;;;;;;5016152;28;20759;-50
2021/04/07 00:02:56;;;;;;;32.63;22.23;;;0.40;1.00;;;;;;5007041;28;20491;-56
2021/04/07 00:05:26;;;;;;;30.47;20.67;;;0.40;1.00;;;;;;5012538;28;20442;-53
2021/04/07 00:07:54;;;;;;;42.23;22.40;;;0.40;3.70;;;;;;5014897;28;20483;-51
2021/04/07 00:10:24;;;;;;;34.47;20.50;;;0.40;1.00;;;;;;5007898;28;20488;-49
2021/04/07 00:12:50;;;;;;;30.93;22.50;;;0.30;1.00;;;;;;5006486;28;20472;-55
2021/04/07 00:15:20;;;;;;;29.37;20.97;;;0.30;1.00;;;;;;5018054;28;20466;-57
2021/04/07 00:17:47;;;;;;;29.17;21.50;;;0.30;1.00;;;;;;5021654;28;20530;-53
2021/04/07 00:20:16;;;;;;;26.67;18.80;;;0.40;4.90;;;;;;5021309;28;20468;-52
2021/04/07 00:22:42;;;;;;;27.77;18.83;;;0.40;1.00;;;;;;5021342;28;20475;-51
2021/04/07 00:25:12;;;;;;;26.53;19.00;;;0.30;85.70;;;;;;5012045;28;20480;-50
2021/04/07 00:27:41;;;;;;;24.37;18.63;;;0.30;99.90;;;;;;5018046;28;20460;-55
2021/04/07 00:30:10;;;;;;;31.90;23.13;;;0.30;99.90;;;;;;5014438;28;20751;-56
2021/04/07 00:32:38;;;;;;;29.50;21.57;;;0.20;99.90;;;;;;5019164;28;20914;-49
2021/04/07 00:35:06;;;;;;;34.23;21.03;;;0.20;99.90;;;;;;5018403;28;20496;-52
2021/04/07 00:37:33;;;;;;;29.83;20.67;;;0.20;99.90;;;;;;5017412;28;20473;-47
2021/04/07 00:39:59;;;;;;;32.50;21.30;;;0.20;99.90;;;;;;5012987;28;20769;-55
2021/04/07 00:42:32;;;;;;;31.23;21.10;;;0.20;99.90;;;;;;5018683;28;20470;-56
2021/04/07 00:44:59;;;;;;;33.10;21.00;;;0.20;99.90;;;;;;5018852;28;20476;-51
2021/04/07 00:47:26;;;;;;;27.03;19.27;;;0.30;99.90;;;;;;5016522;28;20472;-54
2021/04/07 00:49:52;;;;;;;28.13;20.80;;;0.20;99.90;;;;;;5018240;28;20476;-52
2021/04/07 00:52:20;;;;;;;26.83;20.10;;;0.20;99.90;;;;;;5015987;28;20472;-56
2021/04/07 00:54:47;;;;;;;27.27;20.03;;;0.20;99.90;;;;;;5016855;28;20491;-55
2021/04/07 00:57:14;;;;;;;27.63;19.00;;;0.20;71.40;;;;;;5017037;28;20472;-48
2021/04/07 00:59:42;;;;;;;25.10;18.60;;;0.10;99.90;;;;;;5018380;28;20651;-52
2021/04/07 01:02:09;;;;;;;23.03;18.20;;;0.10;99.90;;;;;;5019590;28;20782;-57
2021/04/07 01:04:37;;;;;;;25.90;17.80;;;0.10;99.90;;;;;;5021588;28;20530;-56
2021/04/07 01:07:04;;;;;;;19.00;15.17;;;0.10;99.90;;;;;;5010679;28;20474;-52
2021/04/07 01:09:34;;;;;;;26.07;16.83;;;0.10;99.90;;;;;;5014542;28;20468;-55
2021/04/07 01:12:03;;;;;;;28.43;18.00;;;0.00;99.90;;;;;;5020521;28;20898;-54
2021/04/07 01:14:37;;;;;;;28.07;19.00;;;0.00;99.90;;;;;;5022921;28;20475;-56
2021/04/07 01:17:06;;;;;;;28.70;18.53;;;0.10;99.90;;;;;;5014737;28;20931;-56
2021/04/07 01:19:34;;;;;;;25.90;19.60;;;0.10;99.90;;;;;;5016226;28;20470;-57
2021/04/07 01:22:01;;;;;;;32.87;19.73;;;0.10;99.90;;;;;;5019562;28;20503;-55
2021/04/07 01:24:32;;;;;;;29.00;20.80;;;0.10;99.90;;;;;;5018892;28;20756;-53
2021/04/07 01:26:59;;;;;;;25.07;17.57;;;0.20;99.90;;;;;;5019471;28;20470;-49
2021/04/07 01:29:26;;;;;;;24.53;18.80;;;0.20;99.90;;;;;;5019820;28;20468;-54
2021/04/07 01:31:54;;;;;;;26.20;17.20;;;0.20;99.90;;;;;;5029190;28;20449;-52
2021/04/07 01:34:21;;;;;;;22.27;17.47;;;0.10;99.90;;;;;;5035563;28;20468;-55
2021/04/07 01:36:49;;;;;;;22.57;15.87;;;0.20;99.90;;;;;;5022936;28;20496;-51
2021/04/07 01:39:15;;;;;;;30.97;16.77;;;0.20;99.90;;;;;;5017800;28;20476;-53
2021/04/07 01:41:44;;;;;;;24.10;17.00;;;0.20;99.90;;;;;;5020783;28;20479;-53
2021/04/07 01:44:11;;;;;;;26.27;14.93;;;0.20;99.90;;;;;;5018986;28;20479;-50
2021/04/07 01:46:39;;;;;;;17.50;13.53;;;0.20;99.90;;;;;;5020502;28;20460;-53
2021/04/07 01:49:07;;;;;;;24.10;14.40;;;0.20;99.90;;;;;;5020531;28;20472;-48
2021/04/07 01:51:34;;;;;;;22.03;16.10;;;0.20;99.90;;;;;;5020647;28;20468;-51
2021/04/07 01:54:02;;;;;;;21.33;15.60;;;0.20;99.90;;;;;;5023195;28;20467;-54
2021/04/07 01:56:32;;;;;;;21.90;14.60;;;0.10;99.90;;;;;;5019410;28;20496;-49
2021/04/07 01:59:01;;;;;;;24.97;17.30;;;0.10;99.90;;;;;;5018228;28;20901;-52
2021/04/07 02:01:28;;;;;;;24.60;18.00;;;0.10;99.90;;;;;;5019213;28;20901;-52
2021/04/07 02:03:58;;;;;;;26.83;19.30;;;0.10;99.90;;;;;;5009418;28;20764;-56
2021/04/07 02:06:25;;;;;;;29.93;19.67;;;0.00;99.90;;;;;;5015856;28;20564;-53
2021/04/07 02:08:52;;;;;;;35.27;20.00;;;0.00;99.90;;;;;;5022944;28;20467;-52
2021/04/07 02:11:18;;;;;;;32.30;21.20;;;0.00;99.90;;;;;;5016437;28;20904;-49
2021/04/07 02:13:47;;;;;;;29.57;21.90;;;0.00;99.90;;;;;;5025035;28;20446;-50
2021/04/07 02:16:16;;;;;;;26.30;19.27;;;0.00;99.90;;;;;;5015649;28;20554;-48
2021/04/07 02:18:44;;;;;;;22.93;13.93;;;0.10;99.90;;;;;;5016429;28;20560;-53
2021/04/07 02:21:12;;;;;;;19.77;12.03;;;0.00;99.90;;;;;;5017279;28;20459;-51
2021/04/07 02:23:39;;;;;;;13.00;10.87;;;0.00;99.90;;;;;;5019427;28;20455;-55
2021/04/07 02:26:06;;;;;;;16.07;10.37;;;0.00;99.90;;;;;;5016421;28;20434;-49
2021/04/07 02:28:33;;;;;;;13.43;9.50;;;0.00;99.90;;;;;;5017157;28;20460;-53
2021/04/07 02:31:00;;;;;;;17.10;9.10;;;0.00;99.90;;;;;;5012225;28;20451;-53
2021/04/07 02:33:30;;;;;;;10.90;8.27;;;0.10;99.90;;;;;;5017935;28;20476;-49
2021/04/07 02:35:57;;;;;;;10.43;7.77;;;0.10;99.90;;;;;;5020415;28;20945;-51
2021/04/07 02:38:24;;;;;;;10.93;7.57;;;0.10;99.90;;;;;;5014320;28;20452;-55
2021/04/07 02:40:50;;;;;;;11.73;8.50;;;0.00;99.90;;;;;;5028165;28;20467;-48
2021/04/07 02:43:17;;;;;;;12.80;8.30;;;0.00;99.90;;;;;;5018257;28;21000;-52
2021/04/07 02:45:44;;;;;;;9.60;7.70;;;0.00;99.90;;;;;;5031365;28;20466;-47
2021/04/07 02:48:10;;;;;;;11.47;7.37;;;0.00;99.90;;;;;;5034467;28;20472;-49
2021/04/07 02:50:38;;;;;;;9.20;7.10;;;0.00;99.90;;;;;;5016852;28;20468;-52
2021/04/07 02:53:05;;;;;;;17.57;7.40;;;0.00;99.90;;;;;;5017847;28;20470;-55
2021/04/07 02:55:32;;;;;;;13.70;6.83;;;0.00;99.90;;;;;;5017615;28;20492;-49
2021/04/07 02:57:59;;;;;;;13.40;6.70;;;0.10;99.90;;;;;;5014539;28;20479;-51
2021/04/07 03:00:26;;;;;;;10.87;7.53;;;0.00;99.90;;;;;;5016571;28;20472;-51
2021/04/07 03:02:53;;;;;;;11.50;7.80;;;0.10;99.90;;;;;;5015109;28;20477;-46
2021/04/07 03:05:20;;;;;;;14.17;8.20;;;0.00;99.90;;;;;;5012254;28;20607;-48
2021/04/07 03:07:48;;;;;;;9.90;8.33;;;0.00;99.90;;;;;;5015764;28;20994;-45
2021/04/07 03:10:15;;;;;;;12.30;9.07;;;0.10;99.90;;;;;;5015310;28;20468;-49
2021/04/07 03:12:42;;;;;;;13.57;8.70;;;0.00;99.90;;;;;;5014201;28;20506;-50
2021/04/07 03:15:12;;;;;;;15.43;8.93;;;0.00;99.90;;;;;;5014343;28;20492;-46
2021/04/07 03:17:38;;;;;;;17.60;11.23;;;0.00;99.90;;;;;;5014376;28;20563;-46
2021/04/07 03:20:07;;;;;;;12.63;10.67;;;0.00;99.90;;;;;;5013191;28;20850;-49
2021/04/07 03:22:33;;;;;;;14.90;9.50;;;0.10;99.90;;;;;;5015191;28;20546;-48
2021/04/07 03:25:01;;;;;;;11.80;10.50;;;0.10;99.90;;;;;;5011677;28;20457;-48
2021/04/07 03:27:30;;;;;;;11.77;9.97;;;0.00;99.90;;;;;;5008715;28;20857;-46
2021/04/07 03:29:59;;;;;;;12.07;9.17;;;0.00;99.90;;;;;;5013266;28;20845;-48
2021/04/07 03:32:27;;;;;;;17.00;10.27;;;0.00;99.90;;;;;;5012443;28;20465;-48
2021/04/07 03:34:56;;;;;;;16.63;9.60;;;0.00;99.90;;;;;;5014715;28;20468;-46
2021/04/07 03:37:23;;;;;;;14.40;9.83;;;0.00;99.90;;;;;;5009528;28;20465;-45
2021/04/07 03:39:51;;;;;;;14.27;10.30;;;0.10;99.90;;;;;;5014596;28;20438;-51
2021/04/07 03:42:18;;;;;;;13.07;9.67;;;0.10;99.90;;;;;;5011907;28;20460;-47
2021/04/07 03:44:45;;;;;;;12.70;10.17;;;0.00;99.90;;;;;;5014249;28;20771;-49
2021/04/07 03:47:12;;;;;;;12.90;10.17;;;0.10;99.90;;;;;;5012496;28;20491;-46
2021/04/07 03:49:39;;;;;;;15.33;11.60;;;0.00;99.90;;;;;;5014004;28;20527;-47
2021/04/07 03:52:06;;;;;;;14.80;10.43;;;0.10;99.90;;;;;;5016036;28;20475;-51
2021/04/07 03:54:36;;;;;;;11.13;9.90;;;0.20;99.90;;;;;;5020601;28;20464;-48
2021/04/07 03:57:03;;;;;;;13.40;10.30;;;0.10;99.90;;;;;;5021738;28;20840;-47
2021/04/07 03:59:31;;;;;;;12.67;9.23;;;0.00;99.90;;;;;;5019122;28;20498;-51
2021/04/07 04:01:57;;;;;;;11.83;9.10;;;0.10;99.90;;;;;;5019385;28;20953;-49
2021/04/07 04:04:24;;;;;;;19.47;10.77;;;0.10;99.90;;;;;;5013367;28;20836;-49
2021/04/07 04:06:52;;;;;;;11.43;9.60;;;0.10;99.90;;;;;;5017228;28;21061;-49
2021/04/07 04:09:19;;;;;;;11.90;10.57;;;0.00;99.90;;;;;;5020425;28;20799;-45
2021/04/07 04:11:45;;;;;;;13.97;9.73;;;0.10;99.90;;;;;;5023613;28;20546;-48
2021/04/07 04:14:13;;;;;;;18.30;10.90;;;0.10;99.90;;;;;;5018452;28;20464;-49
2021/04/07 04:16:42;;;;;;;11.57;10.37;;;0.10;99.90;;;;;;5022680;28;20515;-48
2021/04/07 04:19:10;;;;;;;15.50;11.13;;;0.10;99.90;;;;;;5020640;28;20475;-45
2021/04/07 04:21:36;;;;;;;12.70;10.90;;;0.10;99.90;;;;;;5020003;28;20924;-45
2021/04/07 04:24:04;;;;;;;16.37;11.00;;;0.20;99.90;;;;;;5019906;28;20476;-53
2021/04/07 04:26:30;;;;;;;13.97;10.80;;;0.30;99.90;;;;;;5024740;28;20820;-48
2021/04/07 04:28:57;;;;;;;21.73;13.93;;;0.10;99.90;;;;;;5020087;28;20892;-45
2021/04/07 04:31:24;;;;;;;17.60;11.23;;;0.20;99.90;;;;;;5023189;28;20462;-48
2021/04/07 04:33:53;;;;;;;15.80;12.33;;;0.20;99.90;;;;;;5019529;28;20468;-50
2021/04/07 04:36:20;;;;;;;14.47;12.10;;;0.30;99.90;;;;;;5019783;28;20549;-52
2021/04/07 04:38:46;;;;;;;14.47;11.90;;;0.30;99.90;;;;;;5019776;28;20555;-48
2021/04/07 04:41:13;;;;;;;23.23;15.37;;;0.20;99.90;;;;;;5039833;28;20800;-45
2021/04/07 04:43:39;;;;;;;19.30;13.93;;;0.30;99.90;;;;;;5022101;28;20452;-46
2021/04/07 04:46:06;;;;;;;19.20;13.67;;;0.30;99.90;;;;;;5020571;28;20460;-48
2021/04/07 04:48:33;;;;;;;18.27;12.93;;;0.30;99.90;;;;;;5025916;28;20826;-47
2021/04/07 04:51:01;;;;;;;20.00;13.80;;;0.30;99.90;;;;;;5020465;28;20601;-52
2021/04/07 04:53:31;;;;;;;24.07;15.13;;;0.30;99.90;;;;;;5020908;28;20999;-48
2021/04/07 04:56:00;;;;;;;25.47;15.40;;;0.30;99.90;;;;;;5017728;28;20784;-48
2021/04/07 04:58:27;;;;;;;23.73;14.30;;;0.30;99.90;;;;;;5020519;28;20477;-50
2021/04/07 05:00:53;;;;;;;20.90;14.67;;;0.30;99.90;;;;;;5015999;28;20432;-47
2021/04/07 05:03:20;;;;;;;19.67;14.33;;;0.30;99.90;;;;;;5017029;28;20814;-47
2021/04/07 05:05:46;;;;;;;21.30;16.80;;;0.30;99.90;;;;;;5014837;28;20491;-46
2021/04/07 05:08:14;;;;;;;20.73;14.87;;;0.30;99.90;;;;;;5016193;28;20485;-51
2021/04/07 05:10:40;;;;;;;20.70;14.70;;;0.30;99.90;;;;;;5007481;28;20504;-46
2021/04/07 05:13:07;;;;;;;20.90;15.03;;;0.40;99.90;;;;;;5022982;28;20908;-48
2021/04/07 05:15:33;;;;;;;19.70;12.77;;;0.40;99.90;;;;;;5019040;28;20502;-47
2021/04/07 05:18:00;;;;;;;17.30;13.63;;;0.40;99.90;;;;;;5037424;28;20602;-45
2021/04/07 05:20:26;;;;;;;22.03;13.87;;;0.40;99.90;;;;;;5037510;28;20469;-47
2021/04/07 05:22:53;;;;;;;16.80;13.63;;;0.40;99.90;;;;;;5021280;28;20443;-50
2021/04/07 05:25:21;;;;;;;16.10;12.80;;;0.40;99.90;;;;;;5022376;28;20455;-44
2021/04/07 05:27:47;;;;;;;14.93;11.80;;;0.30;99.90;;;;;;5039207;28;20789;-48
2021/04/07 05:30:15;;;;;;;13.67;11.63;;;0.30;99.90;;;;;;5026085;28;20472;-44
2021/04/07 05:32:41;;;;;;;19.20;12.77;;;0.30;99.90;;;;;;5017701;28;20472;-48
2021/04/07 05:35:09;;;;;;;18.60;12.00;;;0.30;99.90;;;;;;5021896;28;20475;-44
2021/04/07 05:37:35;;;;;;;15.93;12.53;;;0.30;99.90;;;;;;5018575;28;20472;-48
2021/04/07 05:40:02;;;;;;;16.40;11.70;;;0.30;99.90;;;;;;5020319;28;20497;-44
2021/04/07 05:42:29;;;;;;;14.20;11.03;;;0.30;99.90;;;;;;5019130;28;20891;-44
2021/04/07 05:44:56;;;;;;;15.70;11.53;;;0.30;99.90;;;;;;5022021;28;20476;-44
2021/04/07 05:47:22;;;;;;;12.43;10.70;;;0.30;99.90;;;;;;5017065;28;20913;-44
2021/04/07 05:49:49;;;;;;;16.97;12.70;;;0.30;99.90;;;;;;5018349;28;20533;-45
2021/04/07 05:52:18;;;;;;;14.97;10.97;;;0.30;99.90;;;;;;5017298;28;20468;-47
2021/04/07 05:54:47;;;;;;;15.17;10.83;;;0.30;99.90;;;;;;5018387;28;20464;-47
2021/04/07 05:57:13;;;;;;;13.10;11.10;;;0.20;99.90;;;;;;5018242;28;20496;-44
2021/04/07 05:59:41;;;;;;;14.60;11.73;;;0.20;99.90;;;;;;5017230;28;20483;-44
2021/04/07 06:02:07;;;;;;;19.60;12.50;;;0.20;99.90;;;;;;5017874;28;20464;-47
2021/04/07 06:04:35;;;;;;;17.53;12.83;;;0.30;99.90;;;;;;5007936;28;20491;-51
2021/04/07 06:07:02;;;;;;;20.93;12.30;;;0.30;99.90;;;;;;5016821;28;20492;-48
2021/04/07 06:09:28;;;;;;;16.37;12.80;;;0.30;99.90;;;;;;5017189;28;20495;-46
2021/04/07 06:11:55;;;;;;;17.57;13.33;;;0.30;99.90;;;;;;5016680;28;20468;-47
2021/04/07 06:14:21;;;;;;;21.23;14.70;;;0.40;99.90;;;;;;5017304;28;20464;-48
2021/04/07 06:16:49;;;;;;;14.93;11.50;;;0.40;99.90;;;;;;5017327;28;20499;-50
2021/04/07 06:19:16;;;;;;;16.70;12.17;;;0.30;99.90;;;;;;5015416;28;20472;-44
2021/04/07 06:21:43;;;;;;;12.67;10.40;;;0.40;99.90;;;;;;5016367;28;20474;-48
2021/04/07 06:24:10;;;;;;;12.47;10.17;;;0.40;99.90;;;;;;5018021;28;20468;-46
2021/04/07 06:26:38;;;;;;;15.17;12.00;;;0.50;99.90;;;;;;5009730;28;20535;-47
2021/04/07 06:29:05;;;;;;;12.70;11.00;;;0.40;99.90;;;;;;5018439;28;20887;-49
2021/04/07 06:31:33;;;;;;;16.43;10.77;;;0.40;99.90;;;;;;5016279;28;20546;-48
2021/04/07 06:34:00;;;;;;;17.20;14.20;;;0.40;99.90;;;;;;5017573;28;20518;-46
2021/04/07 06:36:27;;;;;;;16.00;10.43;;;0.40;99.90;;;;;;5017120;28;20911;-53
2021/04/07 06:38:53;;;;;;;16.03;10.87;;;0.40;99.90;;;;;;5016949;28;20468;-52
2021/04/07 06:41:21;;;;;;;15.73;10.60;;;0.40;99.90;;;;;;5017851;28;20926;-48
2021/04/07 06:43:51;;;;;;;13.57;10.87;;;0.40;99.90;;;;;;5016778;28;20924;-51
2021/04/07 06:46:20;;;;;;;11.90;10.63;;;0.50;99.90;;;;;;5017438;28;20495;-51
2021/04/07 06:48:48;;;;;;;13.13;10.00;;;0.40;99.90;;;;;;5017834;28;20460;-48
2021/04/07 06:51:18;;;;;;;11.47;8.67;;;0.50;99.90;;;;;;5016542;28;20858;-47
2021/04/07 06:53:49;;;;;;;15.33;10.83;;;0.50;99.90;;;;;;5017921;28;20500;-46
2021/04/07 06:56:15;;;;;;;9.83;8.37;;;0.40;99.90;;;;;;5017077;28;20800;-45
2021/04/07 06:58:42;;;;;;;11.73;9.60;;;0.50;99.90;;;;;;5015870;28;20478;-45
2021/04/07 07:01:08;;;;;;;11.33;9.57;;;0.50;99.90;;;;;;5009588;28;20472;-47
2021/04/07 07:03:35;;;;;;;11.30;9.60;;;0.50;99.90;;;;;;5008662;28;20473;-48
2021/04/07 07:06:02;;;;;;;10.03;8.77;;;0.50;99.90;;;;;;5014300;28;20471;-47
2021/04/07 07:08:33;;;;;;;10.20;8.63;;;0.50;99.90;;;;;;5016685;28;20487;-45
2021/04/07 07:11:14;;;;;;;10.57;8.80;;;0.60;99.90;;;;;;5016907;28;20521;-50
2021/04/07 07:13:43;;;;;;;8.60;7.80;;;0.50;99.90;;;;;;5016856;28;20483;-54
2021/04/07 07:16:10;;;;;;;10.27;8.80;;;0.50;99.90;;;;;;5017117;28;20984;-46
2021/04/07 07:18:36;;;;;;;11.43;10.23;;;0.60;99.90;;;;;;5017283;28;20467;-52
2021/04/07 07:21:15;;;;;;;9.83;8.80;;;0.60;99.90;;;;;;5016102;28;20759;-49
2021/04/07 07:23:45;;;;;;;12.37;9.90;;;0.60;99.90;;;;;;5007371;28;20463;-49
2021/04/07 07:26:16;;;;;;;12.73;10.27;;;0.60;99.90;;;;;;5021528;28;20464;-49
2021/04/07 07:28:44;;;;;;;14.53;11.27;;;0.60;99.90;;;;;;5021459;28;20959;-50
2021/04/07 07:31:24;;;;;;;14.77;11.80;;;0.60;99.90;;;;;;5020655;28;20466;-46
2021/04/07 07:33:50;;;;;;;12.67;10.77;;;0.60;99.90;;;;;;5021758;28;20490;-51
2021/04/07 07:36:18;;;;;;;11.03;9.83;;;0.60;99.90;;;;;;5024772;28;20479;-46
2021/04/07 07:38:51;;;;;;;11.90;9.70;;;0.60;99.90;;;;;;5017784;28;20780;-45
2021/04/07 07:41:19;;;;;;;11.93;10.23;;;0.70;99.90;;;;;;5020170;28;20471;-46
2021/04/07 07:43:46;;;;;;;14.10;9.83;;;0.70;99.90;;;;;;5020849;28;20880;-47
2021/04/07 07:46:15;;;;;;;12.03;9.57;;;0.70;99.90;;;;;;5025041;28;20513;-47
2021/04/07 07:48:42;;;;;;;11.37;9.77;;;0.70;99.90;;;;;;5020799;28;20468;-47
2021/04/07 07:51:16;;;;;;;12.37;10.00;;;0.70;99.90;;;;;;5021279;28;20467;-52
2021/04/07 07:53:45;;;;;;;10.53;9.40;;;0.70;99.90;;;;;;5021950;28;20767;-50
2021/04/07 07:56:14;;;;;;;9.70;8.80;;;0.70;99.90;;;;;;5016977;28;20802;-51
2021/04/07 07:58:43;;;;;;;15.00;9.60;;;0.70;99.90;;;;;;5023940;28;20442;-49
2021/04/07 08:01:14;;;;;;;11.97;9.37;;;0.70;99.90;;;;;;5020641;28;20764;-46
2021/04/07 08:03:41;;;;;;;10.13;8.63;;;0.70;99.90;;;;;;5014370;28;20471;-50
2021/04/07 08:06:09;;;;;;;10.87;8.60;;;0.70;99.90;;;;;;5017034;28;20506;-52
2021/04/07 08:08:36;;;;;;;12.93;9.43;;;0.70;99.90;;;;;;5020192;28;20819;-46
2021/04/07 08:11:03;;;;;;;12.47;8.43;;;0.80;99.90;;;;;;5011724;28;20848;-46
2021/04/07 08:13:39;;;;;;;8.80;7.80;;;0.80;99.90;;;;;;5020348;28;20464;-46
2021/04/07 08:16:07;;;;;;;10.13;8.30;;;0.80;99.90;;;;;;5018911;28;20575;-48
2021/04/07 08:18:34;;;;;;;8.93;8.03;;;0.70;99.90;;;;;;5023118;28;20772;-52
2021/04/07 08:21:04;;;;;;;11.53;8.20;;;0.70;99.90;;;;;;5020024;28;20888;-49
2021/04/07 08:23:32;;;;;;;8.90;8.00;;;0.70;99.90;;;;;;5026426;28;20522;-49
2021/04/07 08:26:02;;;;;;;9.13;8.13;;;0.70;99.90;;;;;;5021095;28;20456;-47
2021/04/07 08:28:31;;;;;;;9.17;7.40;;;0.70;99.90;;;;;;5038085;28;20437;-51
2021/04/07 08:30:58;;;;;;;9.67;8.20;;;0.80;99.90;;;;;;5024563;28;20915;-53
2021/04/07 08:33:25;;;;;;;9.37;8.17;;;0.80;99.90;;;;;;5038921;28;20462;-52
2021/04/07 08:35:53;;;;;;;9.33;8.40;;;0.80;99.90;;;;;;5022054;28;20491;-56
2021/04/07 08:38:32;;;;;;;8.90;7.97;;;0.90;99.90;;;;;;5019003;28;20467;-56
2021/04/07 08:41:10;;;;;;;9.17;8.27;;;1.00;99.90;;;;;;5030290;28;20463;-52
2021/04/07 08:43:47;;;;;;;8.87;7.97;;;0.90;99.90;;;;;;5026212;28;20472;-58
2021/04/07 08:46:15;;;;;;;11.90;9.60;;;0.90;99.90;;;;;;5032345;28;20766;-57
2021/04/07 08:48:43;;;;;;;11.43;9.60;;;1.00;99.90;;;;;;5034464;28;20488;-59
2021/04/07 08:51:13;;;;;;;27.67;17.50;;;1.00;99.90;;;;;;5034053;28;20944;-58
2021/04/07 08:53:42;;;;;;;9.70;8.80;;;1.10;99.90;;;;;;5021797;28;20779;-59
2021/04/07 08:56:10;;;;;;;10.40;9.33;;;1.10;99.90;;;;;;5037808;28;20549;-59
2021/04/07 08:58:50;;;;;;;10.27;9.23;;;1.10;99.90;;;;;;5028521;28;20554;-59
2021/04/07 09:01:24;;;;;;;10.10;9.20;;;1.10;99.90;;;;;;5018645;28;20539;-58
2021/04/07 09:04:02;;;;;;;9.23;8.23;;;1.00;99.90;;;;;;5011619;28;20528;-60
2021/04/07 09:06:29;;;;;;;9.47;8.57;;;1.10;99.90;;;;;;4985473;28;785340;-58
2021/04/07 09:08:57;;;;;;;9.30;8.43;;;1.00;99.90;;;;;;5031630;28;20472;-55
2021/04/07 09:11:32;;;;;;;10.37;9.37;;;1.00;99.90;;;;;;5020193;28;20490;-59
2021/04/07 09:14:04;;;;;;;11.80;8.97;;;1.00;99.90;;;;;;5025633;28;20471;-57
2021/04/07 09:16:38;;;;;;;9.90;8.80;;;1.00;99.90;;;;;;5021856;28;20484;-55
2021/04/07 09:19:16;;;;;;;9.50;8.47;;;1.00;99.90;;;;;;5038999;28;20484;-58
2021/04/07 09:21:57;;;;;;;12.10;9.07;;;1.10;99.90;;;;;;5024114;28;20440;-60
2021/04/07 09:24:26;;;;;;;10.60;9.60;;;1.00;99.90;;;;;;5000011;28;20469;-60
2021/04/07 09:26:55;;;;;;;9.90;9.00;;;1.10;99.90;;;;;;5027775;28;20478;-60
2021/04/07 09:29:22;;;;;;;13.83;10.27;;;1.10;99.90;;;;;;5038913;28;20459;-60
2021/04/07 09:31:51;;;;;;;10.30;8.53;;;1.10;99.90;;;;;;5034565;28;20464;-61
2021/04/07 09:34:17;;;;;;;12.90;10.90;;;1.20;99.90;;;;;;5037196;28;20475;-61
2021/04/07 09:36:46;;;;;;;10.43;8.10;;;1.20;99.90;;;;;;5033547;28;20470;-61
2021/04/07 09:39:14;;;;;;;10.53;9.43;;;1.20;99.90;;;;;;5014554;28;20472;-61
2021/04/07 09:41:42;;;;;;;13.10;11.70;;;1.20;99.90;;;;;;5037262;28;20463;-62
2021/04/07 09:44:10;;;;;;;14.03;11.00;;;1.30;99.90;;;;;;5021754;28;20499;-62
2021/04/07 09:46:37;;;;;;;11.30;10.13;;;1.30;99.90;;;;;;5038525;28;20455;-63
2021/04/07 09:49:06;;;;;;;12.27;9.70;;;1.30;99.90;;;;;;5033747;28;20463;-63
2021/04/07 09:51:36;;;;;;;11.30;10.20;;;1.20;99.90;;;;;;5038950;28;20474;-63
2021/04/07 09:54:21;;;;;;;10.03;9.03;;;1.20;99.90;;;;;;5031409;28;20453;-63
2021/04/07 09:56:57;;;;;;;11.30;9.43;;;1.20;99.90;;;;;;5016327;28;20517;-63
2021/04/07 09:59:35;;;;;;;9.97;8.97;;;1.30;99.90;;;;;;5020510;28;20780;-63
2021/04/07 10:02:04;;;;;;;29.30;11.67;;;1.30;99.90;;;;;;5018890;28;20468;-63
2021/04/07 10:04:32;;;;;;;21.40;9.77;;;1.40;99.90;;;;;;5009448;28;20530;-64
2021/04/07 10:07:12;;;;;;;15.27;9.97;;;1.30;99.90;;;;;;5015201;28;20484;-63
2021/04/07 10:09:41;;;;;;;13.93;9.00;;;1.30;99.90;;;;;;5014375;28;20468;-63
2021/04/07 10:12:11;;;;;;;22.27;9.87;;;1.30;99.90;;;;;;5015299;28;20468;-64
2021/04/07 10:14:37;;;;;;;89.33;16.30;;;1.30;99.90;;;;;;5016056;28;20468;-63
2021/04/07 10:17:15;;;;;;;28.80;10.27;;;1.20;99.90;;;;;;5016075;28;20975;-63
2021/04/07 10:19:42;;;;;;;29.57;9.80;;;1.40;99.90;;;;;;5016853;28;20772;-64
2021/04/07 10:22:17;;;;;;;17.30;8.90;;;1.50;99.90;;;;;;5020328;28;20810;-64
2021/04/07 10:24:47;;;;;;;19.93;9.20;;;1.50;99.90;;;;;;5016941;28;20904;-64
2021/04/07 10:27:18;;;;;;;50.53;9.90;;;1.60;99.90;;;;;;5025568;28;20919;-64
2021/04/07 10:29:45;;;;;;;15.20;6.70;;;1.60;99.90;;;;;;5020911;28;20835;-64
2021/04/07 10:32:17;;;;;;;7.70;6.57;;;1.60;99.90;;;;;;5017813;28;20476;-64
2021/04/07 10:34:44;;;;;;;69.63;8.30;;;1.60;99.90;;;;;;5021631;28;20478;-63
2021/04/07 10:37:14;;;;;;;24.60;7.60;;;1.60;99.90;;;;;;5014217;28;20817;-63
2021/04/07 10:39:42;;;;;;;32.70;9.87;;;1.60;99.90;;;;;;5020615;28;20472;-63
2021/04/07 10:42:13;;;;;;;20.83;8.30;;;1.60;99.90;;;;;;5015955;28;20803;-63
2021/04/07 10:44:41;;;;;;;9.33;6.50;;;1.60;99.90;;;;;;5013582;28;20476;-63
2021/04/07 10:47:22;;;;;;;12.10;7.30;;;1.60;99.90;;;;;;5011507;28;20438;-62
2021/04/07 10:49:53;;;;;;;9.47;6.30;;;1.60;99.90;;;;;;5006351;28;20508;-62
2021/04/07 10:52:31;;;;;;;16.27;7.23;;;1.60;99.90;;;;;;4998356;28;20472;-62
2021/04/07 10:54:58;;;;;;;24.60;8.00;;;1.70;99.90;;;;;;4998331;28;20880;-63
2021/04/07 10:57:37;;;;;;;8.77;6.40;;;1.80;99.90;;;;;;5015812;28;20774;-63
2021/04/07 11:00:09;;;;;;;15.20;7.17;;;1.70;99.90;;;;;;5016228;28;20909;-63
2021/04/07 11:02:45;;;;;;;23.17;7.47;;;1.70;99.90;;;;;;5013637;28;20468;-63
2021/04/07 11:05:18;;;;;;;7.83;7.13;;;1.60;99.90;;;;;;5008488;28;20768;-63
2021/04/07 11:07:45;;;;;;;6.50;5.90;;;1.60;99.90;;;;;;5015360;28;20579;-63
2021/04/07 11:10:13;;;;;;;7.00;6.30;;;1.60;99.90;;;;;;5015466;28;20500;-63
2021/04/07 11:12:41;;;;;;;9.70;6.63;;;1.60;99.90;;;;;;5015648;28;20465;-63
2021/04/07 11:15:13;;;;;;;7.17;6.47;;;1.60;99.90;;;;;;5013905;28;20487;-63
2021/04/07 11:17:51;;;;;;;8.90;8.10;;;1.60;99.90;;;;;;5017028;28;20491;-62
2021/04/07 11:20:18;;;;;;;9.77;8.77;;;1.70;99.90;;;;;;5015791;28;20898;-62
2021/04/07 11:22:44;;;;;;;9.40;8.50;;;1.80;99.90;;;;;;5016674;28;20937;-62
2021/04/07 11:25:17;;;;;;;13.20;10.00;;;1.80;99.90;;;;;;5017293;28;20460;-62
2021/04/07 11:27:46;;;;;;;10.40;8.90;;;1.90;99.90;;;;;;5020157;28;20803;-62
2021/04/07 11:30:16;;;;;;;9.83;8.13;;;2.00;99.90;;;;;;5017099;28;20904;-62
2021/04/07 11:32:46;;;;;;;9.40;8.43;;;2.00;99.90;;;;;;5027198;28;20459;-63
2021/04/07 11:35:16;;;;;;;15.00;10.30;;;1.90;99.90;;;;;;5019316;28;20561;-63
2021/04/07 11:37:47;;;;;;;15.83;9.90;;;2.00;99.90;;;;;;5016488;28;20507;-63
2021/04/07 11:40:32;;;;;;;16.93;11.10;;;1.90;99.90;;;;;;5020678;28;20846;-63
2021/04/07 11:43:01;;;;;;;15.60;11.27;;;1.90;99.90;;;;;;5017168;28;20476;-63
2021/04/07 11:45:28;;;;;;;14.87;12.07;;;2.00;99.90;;;;;;5023616;28;20490;-64
2021/04/07 11:47:54;;;;;;;16.07;12.77;;;2.10;99.90;;;;;;5027326;28;20567;-64
2021/04/07 11:50:23;;;;;;;14.53;12.10;;;2.10;99.90;;;;;;5019708;28;20905;-64
2021/04/07 11:52:52;;;;;;;16.63;10.90;;;2.20;99.90;;;;;;5015910;28;20777;-63
2021/04/07 11:55:19;;;;;;;10.63;9.43;;;2.20;99.90;;;;;;5018638;28;20959;-61
2021/04/07 11:57:46;;;;;;;12.70;8.87;;;2.20;99.90;;;;;;5016772;28;20837;-60
2021/04/07 12:00:15;;;;;;;12.30;10.33;;;2.20;99.90;;;;;;5009467;28;20474;-57
2021/04/07 12:02:44;;;;;;;16.93;11.30;;;2.30;99.90;;;;;;5011017;28;20792;-61
2021/04/07 12:05:15;;;;;;;19.00;14.30;;;2.40;99.90;;;;;;5011761;28;20586;-56
2021/04/07 12:07:42;;;;;;;13.07;11.60;;;2.60;99.90;;;;;;5015147;28;20497;-62
2021/04/07 12:10:09;;;;;;;11.83;10.57;;;2.70;99.90;;;;;;5014644;28;20468;-62
2021/04/07 12:12:36;;;;;;;10.30;9.30;;;3.00;99.90;;;;;;5012723;28;20471;-61
2021/04/07 12:15:05;;;;;;;13.57;8.70;;;3.20;99.90;;;;;;5019465;28;20467;-59
2021/04/07 12:17:34;;;;;;;14.83;9.17;;;3.50;99.90;;;;;;5021962;28;20985;-59
2021/04/07 12:20:00;;;;;;;9.87;8.93;;;3.60;99.90;;;;;;5019791;28;20476;-57
2021/04/07 12:22:30;;;;;;;11.60;8.33;;;4.00;99.90;;;;;;5015305;28;20483;-56
2021/04/07 12:25:00;;;;;;;9.80;8.03;;;4.20;99.90;;;;;;5020027;28;20470;-53
2021/04/07 12:27:26;;;;;;;8.07;6.27;;;4.30;99.90;;;;;;5022797;28;20464;-61
2021/04/07 12:29:53;;;;;;;7.60;6.80;;;4.50;99.90;;;;;;5019521;28;20673;-61
2021/04/07 12:32:19;;;;;;;9.17;6.77;;;4.90;99.90;;;;;;5024096;28;20735;-64
2021/04/07 12:34:49;;;;;;;10.67;7.20;;;5.00;99.90;;;;;;5020165;28;20438;-64
2021/04/07 12:37:15;;;;;;;10.23;6.33;;;4.80;99.90;;;;;;5027383;28;20523;-67
2021/04/07 12:39:42;;;;;;;10.40;6.80;;;4.50;99.90;;;;;;5017809;28;20622;-66
2021/04/07 12:42:15;;;;;;;9.93;7.57;;;4.40;99.90;;;;;;5015310;28;20833;-66
2021/04/07 12:44:41;;;;;;;6.73;6.10;;;4.30;99.90;;;;;;5017362;28;20472;-66
2021/04/07 12:47:10;;;;;;;11.97;6.80;;;4.30;99.90;;;;;;5017462;28;20474;-64
2021/04/07 12:49:37;;;;;;;9.80;6.70;;;4.20;99.90;;;;;;5018144;28;20570;-63